sensor_id;sensor_type;location;lat;lon;timestamp;temperature;humidity
23301;DHT22;11819;51.394;12.340;2023-04-15T00:01:18;8.50;99.20
23301;DHT22;11819;51.394;12.340;2023-04-15T00:03:44;8.50;99.10
23301;DHT22;11819;51.394;12.340;2023-04-15T00:06:10;8.50;98.90
23301;DHT22;11819;51.394;12.340;2023-04-15T00:08:36;8.40;98.90
23301;DHT22;11819;51.394;12.340;2023-04-15T00:11:02;8.40;99.00
23301;DHT22;11819;51.394;12.340;2023-04-15T00:13:30;8.40;99.10
23301;DHT22;11819;51.394;12.340;2023-04-15T00:15:57;8.40;99.20
23301;DHT22;11819;51.394;12.340;2023-04-15T00:18:23;8.40;99.10
23301;DHT22;11819;51.394;12.340;2023-04-15T00:20:49;8.30;99.10
23301;DHT22;11819;51.394;12.340;2023-04-15T00:23:14;8.30;99.10
23301;DHT22;11819;51.394;12.340;2023-04-15T00:25:40;8.30;99.20
23301;DHT22;11819;51.394;12.340;2023-04-15T00:28:06;8.20;99.20
23301;DHT22;11819;51.394;12.340;2023-04-15T00:30:31;8.20;99.50
23301;DHT22;11819;51.394;12.340;2023-04-15T00:32:58;8.20;99.60
23301;DHT22;11819;51.394;12.340;2023-04-15T00:35:23;8.20;99.70
23301;DHT22;11819;51.394;12.340;2023-04-15T00:37:49;8.30;99.60
23301;DHT22;11819;51.394;12.340;2023-04-15T00:40:17;8.30;99.50
23301;DHT22;11819;51.394;12.340;2023-04-15T00:42:43;8.20;99.60
23301;DHT22;11819;51.394;12.340;2023-04-15T00:45:10;8.20;99.70
23301;DHT22;11819;51.394;12.340;2023-04-15T00:47:36;8.30;99.70
23301;DHT22;11819;51.394;12.340;2023-04-15T00:50:03;8.30;99.60
23301;DHT22;11819;51.394;12.340;2023-04-15T00:52:30;8.20;99.50
23301;DHT22;11819;51.394;12.340;2023-04-15T00:54:56;8.20;99.60
23301;DHT22;11819;51.394;12.340;2023-04-15T00:57:21;8.20;99.70
23301;DHT22;11819;51.394;12.340;2023-04-15T00:59:47;8.20;99.70
23301;DHT22;11819;51.394;12.340;2023-04-15T01:02:13;8.10;99.60
23301;DHT22;11819;51.394;12.340;2023-04-15T01:04:39;8.10;99.70
23301;DHT22;11819;51.394;12.340;2023-04-15T01:07:05;8.10;99.80
23301;DHT22;11819;51.394;12.340;2023-04-15T01:09:31;8.10;99.80
23301;DHT22;11819;51.394;12.340;2023-04-15T01:11:58;8.10;99.80
23301;DHT22;11819;51.394;12.340;2023-04-15T01:14:24;8.20;99.80
23301;DHT22;11819;51.394;12.340;2023-04-15T01:16:51;8.20;99.70
23301;DHT22;11819;51.394;12.340;2023-04-15T01:19:17;8.20;99.90
23301;DHT22;11819;51.394;12.340;2023-04-15T01:21:43;8.20;99.80
23301;DHT22;11819;51.394;12.340;2023-04-15T01:24:10;8.20;99.80
23301;DHT22;11819;51.394;12.340;2023-04-15T01:26:37;8.20;99.90
23301;DHT22;11819;51.394;12.340;2023-04-15T01:29:05;8.20;99.80
23301;DHT22;11819;51.394;12.340;2023-04-15T01:31:31;8.20;99.90
23301;DHT22;11819;51.394;12.340;2023-04-15T01:33:58;8.10;99.90
23301;DHT22;11819;51.394;12.340;2023-04-15T01:36:24;8.20;99.90
23301;DHT22;11819;51.394;12.340;2023-04-15T01:38:52;8.20;99.90
23301;DHT22;11819;51.394;12.340;2023-04-15T01:41:27;8.20;99.90
23301;DHT22;11819;51.394;12.340;2023-04-15T01:43:53;8.20;99.90
23301;DHT22;11819;51.394;12.340;2023-04-15T01:46:19;8.20;99.80
23301;DHT22;11819;51.394;12.340;2023-04-15T01:48:45;8.10;99.80
23301;DHT22;11819;51.394;12.340;2023-04-15T01:51:11;8.10;99.90
23301;DHT22;11819;51.394;12.340;2023-04-15T01:53:37;8.10;99.90
23301;DHT22;11819;51.394;12.340;2023-04-15T01:56:03;8.20;99.90
23301;DHT22;11819;51.394;12.340;2023-04-15T01:58:28;8.20;99.90
23301;DHT22;11819;51.394;12.340;2023-04-15T02:00:54;8.20;99.90
23301;DHT22;11819;51.394;12.340;2023-04-15T02:03:20;8.20;99.90
23301;DHT22;11819;51.394;12.340;2023-04-15T02:05:46;8.20;99.90
23301;DHT22;11819;51.394;12.340;2023-04-15T02:08:11;8.20;99.90
23301;DHT22;11819;51.394;12.340;2023-04-15T02:10:37;8.10;99.90
23301;DHT22;11819;51.394;12.340;2023-04-15T02:13:04;8.10;99.90
23301;DHT22;11819;51.394;12.340;2023-04-15T02:15:29;8.10;99.90
23301;DHT22;11819;51.394;12.340;2023-04-15T02:17:55;8.10;99.90
23301;DHT22;11819;51.394;12.340;2023-04-15T02:20:21;8.10;99.90
23301;DHT22;11819;51.394;12.340;2023-04-15T02:22:48;8.10;99.90
23301;DHT22;11819;51.394;12.340;2023-04-15T02:25:14;8.00;99.90
23301;DHT22;11819;51.394;12.340;2023-04-15T02:27:41;8.00;99.90
23301;DHT22;11819;51.394;12.340;2023-04-15T02:30:08;8.00;99.90
23301;DHT22;11819;51.394;12.340;2023-04-15T02:32:34;8.00;99.90
23301;DHT22;11819;51.394;12.340;2023-04-15T02:35:06;7.90;99.90
23301;DHT22;11819;51.394;12.340;2023-04-15T02:37:34;7.80;99.90
23301;DHT22;11819;51.394;12.340;2023-04-15T02:40:08;7.90;99.90
23301;DHT22;11819;51.394;12.340;2023-04-15T02:42:36;7.90;99.90
23301;DHT22;11819;51.394;12.340;2023-04-15T02:45:02;7.90;99.90
23301;DHT22;11819;51.394;12.340;2023-04-15T02:47:32;7.90;99.90
23301;DHT22;11819;51.394;12.340;2023-04-15T02:49:58;7.90;99.90
23301;DHT22;11819;51.394;12.340;2023-04-15T02:52:25;7.90;99.90
23301;DHT22;11819;51.394;12.340;2023-04-15T02:54:50;7.90;99.90
23301;DHT22;11819;51.394;12.340;2023-04-15T02:57:16;7.90;99.90
23301;DHT22;11819;51.394;12.340;2023-04-15T02:59:41;7.90;99.90
23301;DHT22;11819;51.394;12.340;2023-04-15T03:02:07;7.90;99.90
23301;DHT22;11819;51.394;12.340;2023-04-15T03:04:33;7.90;99.90
23301;DHT22;11819;51.394;12.340;2023-04-15T03:07:00;7.90;99.90
23301;DHT22;11819;51.394;12.340;2023-04-15T03:09:26;7.90;99.90
23301;DHT22;11819;51.394;12.340;2023-04-15T03:11:53;7.90;99.90
23301;DHT22;11819;51.394;12.340;2023-04-15T03:14:19;7.90;99.90
23301;DHT22;11819;51.394;12.340;2023-04-15T03:16:46;7.90;99.90
23301;DHT22;11819;51.394;12.340;2023-04-15T03:19:15;7.90;99.90
23301;DHT22;11819;51.394;12.340;2023-04-15T03:21:42;7.90;99.90
23301;DHT22;11819;51.394;12.340;2023-04-15T03:24:08;7.90;99.90
23301;DHT22;11819;51.394;12.340;2023-04-15T03:26:34;7.90;99.90
23301;DHT22;11819;51.394;12.340;2023-04-15T03:29:05;7.90;99.90
23301;DHT22;11819;51.394;12.340;2023-04-15T03:31:30;7.90;99.90
23301;DHT22;11819;51.394;12.340;2023-04-15T03:33:56;7.80;99.90
23301;DHT22;11819;51.394;12.340;2023-04-15T03:36:22;7.80;99.90
23301;DHT22;11819;51.394;12.340;2023-04-15T03:38:48;7.80;99.90
23301;DHT22;11819;51.394;12.340;2023-04-15T03:41:14;7.80;99.90
23301;DHT22;11819;51.394;12.340;2023-04-15T03:43:40;7.80;99.90
23301;DHT22;11819;51.394;12.340;2023-04-15T03:46:06;7.80;99.90
23301;DHT22;11819;51.394;12.340;2023-04-15T03:48:31;7.80;99.90
23301;DHT22;11819;51.394;12.340;2023-04-15T03:50:57;7.70;99.90
23301;DHT22;11819;51.394;12.340;2023-04-15T03:53:22;7.70;99.90
23301;DHT22;11819;51.394;12.340;2023-04-15T03:55:48;7.70;99.90
23301;DHT22;11819;51.394;12.340;2023-04-15T03:58:13;7.80;99.90
23301;DHT22;11819;51.394;12.340;2023-04-15T04:00:39;7.80;99.90
23301;DHT22;11819;51.394;12.340;2023-04-15T04:03:05;7.80;99.90
23301;DHT22;11819;51.394;12.340;2023-04-15T04:05:31;7.80;99.90
23301;DHT22;11819;51.394;12.340;2023-04-15T04:07:57;7.80;99.90
23301;DHT22;11819;51.394;12.340;2023-04-15T04:10:22;7.90;99.90
23301;DHT22;11819;51.394;12.340;2023-04-15T04:12:48;7.80;99.90
23301;DHT22;11819;51.394;12.340;2023-04-15T04:15:13;7.80;99.90
23301;DHT22;11819;51.394;12.340;2023-04-15T04:17:39;7.80;99.90
23301;DHT22;11819;51.394;12.340;2023-04-15T04:20:05;7.80;99.90
23301;DHT22;11819;51.394;12.340;2023-04-15T04:22:37;7.80;99.90
23301;DHT22;11819;51.394;12.340;2023-04-15T04:25:04;7.80;99.90
23301;DHT22;11819;51.394;12.340;2023-04-15T04:27:30;7.80;99.90
23301;DHT22;11819;51.394;12.340;2023-04-15T04:29:55;7.80;99.90
23301;DHT22;11819;51.394;12.340;2023-04-15T04:32:21;7.80;99.90
23301;DHT22;11819;51.394;12.340;2023-04-15T04:34:46;7.80;99.90
23301;DHT22;11819;51.394;12.340;2023-04-15T04:37:12;7.80;99.90
23301;DHT22;11819;51.394;12.340;2023-04-15T04:39:39;7.80;99.90
23301;DHT22;11819;51.394;12.340;2023-04-15T04:42:04;7.80;99.90
23301;DHT22;11819;51.394;12.340;2023-04-15T04:44:30;7.80;99.90
23301;DHT22;11819;51.394;12.340;2023-04-15T04:46:55;7.80;99.90
23301;DHT22;11819;51.394;12.340;2023-04-15T04:49:21;7.80;99.90
23301;DHT22;11819;51.394;12.340;2023-04-15T04:51:46;7.80;99.90
23301;DHT22;11819;51.394;12.340;2023-04-15T04:54:13;7.80;99.90
23301;DHT22;11819;51.394;12.340;2023-04-15T04:56:38;7.80;99.90
23301;DHT22;11819;51.394;12.340;2023-04-15T04:59:04;7.80;99.90
23301;DHT22;11819;51.394;12.340;2023-04-15T05:01:30;7.80;99.90
23301;DHT22;11819;51.394;12.340;2023-04-15T05:03:56;7.80;99.90
23301;DHT22;11819;51.394;12.340;2023-04-15T05:06:21;7.80;99.90
23301;DHT22;11819;51.394;12.340;2023-04-15T05:08:47;7.80;99.90
23301;DHT22;11819;51.394;12.340;2023-04-15T05:11:12;7.80;99.90
23301;DHT22;11819;51.394;12.340;2023-04-15T05:13:38;7.80;99.90
23301;DHT22;11819;51.394;12.340;2023-04-15T05:16:04;7.80;99.90
23301;DHT22;11819;51.394;12.340;2023-04-15T05:18:30;7.80;99.90
23301;DHT22;11819;51.394;12.340;2023-04-15T05:20:56;7.80;99.90
23301;DHT22;11819;51.394;12.340;2023-04-15T05:23:22;7.80;99.90
23301;DHT22;11819;51.394;12.340;2023-04-15T05:25:48;7.80;99.90
23301;DHT22;11819;51.394;12.340;2023-04-15T05:28:14;7.80;99.90
23301;DHT22;11819;51.394;12.340;2023-04-15T05:30:40;7.80;99.90
23301;DHT22;11819;51.394;12.340;2023-04-15T05:33:05;7.90;99.90
23301;DHT22;11819;51.394;12.340;2023-04-15T05:35:31;7.80;99.90
23301;DHT22;11819;51.394;12.340;2023-04-15T05:37:56;7.80;99.90
23301;DHT22;11819;51.394;12.340;2023-04-15T05:40:22;7.80;99.90
23301;DHT22;11819;51.394;12.340;2023-04-15T05:42:47;7.80;99.90
23301;DHT22;11819;51.394;12.340;2023-04-15T05:45:13;7.80;99.90
23301;DHT22;11819;51.394;12.340;2023-04-15T05:47:39;7.80;99.90
23301;DHT22;11819;51.394;12.340;2023-04-15T05:50:05;7.80;99.90
23301;DHT22;11819;51.394;12.340;2023-04-15T05:52:31;7.80;99.90
23301;DHT22;11819;51.394;12.340;2023-04-15T05:54:57;7.80;99.90
23301;DHT22;11819;51.394;12.340;2023-04-15T05:57:22;7.80;99.90
23301;DHT22;11819;51.394;12.340;2023-04-15T05:59:48;7.80;99.90
23301;DHT22;11819;51.394;12.340;2023-04-15T06:02:15;7.90;99.90
23301;DHT22;11819;51.394;12.340;2023-04-15T06:04:41;7.90;99.90
23301;DHT22;11819;51.394;12.340;2023-04-15T06:07:07;7.90;99.90
23301;DHT22;11819;51.394;12.340;2023-04-15T06:09:33;7.80;99.90
23301;DHT22;11819;51.394;12.340;2023-04-15T06:11:59;7.80;99.90
23301;DHT22;11819;51.394;12.340;2023-04-15T06:14:26;7.90;99.90
23301;DHT22;11819;51.394;12.340;2023-04-15T06:16:53;7.80;99.90
23301;DHT22;11819;51.394;12.340;2023-04-15T06:19:18;7.80;99.90
23301;DHT22;11819;51.394;12.340;2023-04-15T06:21:44;7.90;99.90
23301;DHT22;11819;51.394;12.340;2023-04-15T06:24:11;7.90;99.90
23301;DHT22;11819;51.394;12.340;2023-04-15T06:26:36;8.00;99.90
23301;DHT22;11819;51.394;12.340;2023-04-15T06:29:02;8.00;99.90
23301;DHT22;11819;51.394;12.340;2023-04-15T06:31:28;8.00;99.90
23301;DHT22;11819;51.394;12.340;2023-04-15T06:33:53;8.00;99.90
23301;DHT22;11819;51.394;12.340;2023-04-15T06:36:19;8.00;99.90
23301;DHT22;11819;51.394;12.340;2023-04-15T06:38:44;8.10;99.90
23301;DHT22;11819;51.394;12.340;2023-04-15T06:41:10;8.10;99.90
23301;DHT22;11819;51.394;12.340;2023-04-15T06:43:36;8.10;99.90
23301;DHT22;11819;51.394;12.340;2023-04-15T06:46:02;8.10;99.90
23301;DHT22;11819;51.394;12.340;2023-04-15T06:48:27;8.10;99.90
23301;DHT22;11819;51.394;12.340;2023-04-15T06:50:53;8.10;99.90
23301;DHT22;11819;51.394;12.340;2023-04-15T06:53:19;8.10;99.90
23301;DHT22;11819;51.394;12.340;2023-04-15T06:55:44;8.10;99.90
23301;DHT22;11819;51.394;12.340;2023-04-15T06:58:10;8.20;99.90
23301;DHT22;11819;51.394;12.340;2023-04-15T07:00:36;8.20;99.90
23301;DHT22;11819;51.394;12.340;2023-04-15T07:03:03;8.20;99.90
23301;DHT22;11819;51.394;12.340;2023-04-15T07:05:29;8.20;99.90
23301;DHT22;11819;51.394;12.340;2023-04-15T07:07:56;8.20;99.90
23301;DHT22;11819;51.394;12.340;2023-04-15T07:10:22;8.30;99.90
23301;DHT22;11819;51.394;12.340;2023-04-15T07:12:48;8.30;99.90
23301;DHT22;11819;51.394;12.340;2023-04-15T07:15:15;8.30;99.90
23301;DHT22;11819;51.394;12.340;2023-04-15T07:17:41;8.30;99.90
23301;DHT22;11819;51.394;12.340;2023-04-15T07:20:10;8.40;99.90
23301;DHT22;11819;51.394;12.340;2023-04-15T07:22:37;8.30;99.90
23301;DHT22;11819;51.394;12.340;2023-04-15T07:25:05;8.40;99.90
23301;DHT22;11819;51.394;12.340;2023-04-15T07:27:31;8.40;99.90
23301;DHT22;11819;51.394;12.340;2023-04-15T07:29:56;8.40;99.90
23301;DHT22;11819;51.394;12.340;2023-04-15T07:32:22;8.40;99.90
23301;DHT22;11819;51.394;12.340;2023-04-15T07:34:48;8.50;99.90
23301;DHT22;11819;51.394;12.340;2023-04-15T07:37:14;8.50;99.90
23301;DHT22;11819;51.394;12.340;2023-04-15T07:39:39;8.50;99.90
23301;DHT22;11819;51.394;12.340;2023-04-15T07:42:05;8.50;99.90
23301;DHT22;11819;51.394;12.340;2023-04-15T07:44:31;8.60;99.90
23301;DHT22;11819;51.394;12.340;2023-04-15T07:46:57;8.60;99.90
23301;DHT22;11819;51.394;12.340;2023-04-15T07:49:23;8.60;99.90
23301;DHT22;11819;51.394;12.340;2023-04-15T07:51:49;8.60;99.90
23301;DHT22;11819;51.394;12.340;2023-04-15T07:54:15;8.60;99.90
23301;DHT22;11819;51.394;12.340;2023-04-15T07:56:43;8.60;99.90
23301;DHT22;11819;51.394;12.340;2023-04-15T07:59:09;8.60;99.90
23301;DHT22;11819;51.394;12.340;2023-04-15T08:01:35;8.60;99.90
23301;DHT22;11819;51.394;12.340;2023-04-15T08:04:01;8.60;99.90
23301;DHT22;11819;51.394;12.340;2023-04-15T08:06:26;8.60;99.90
23301;DHT22;11819;51.394;12.340;2023-04-15T08:08:52;8.60;99.90
23301;DHT22;11819;51.394;12.340;2023-04-15T08:11:19;8.70;99.90
23301;DHT22;11819;51.394;12.340;2023-04-15T08:13:46;8.70;99.90
23301;DHT22;11819;51.394;12.340;2023-04-15T08:16:25;8.80;99.90
23301;DHT22;11819;51.394;12.340;2023-04-15T08:18:54;8.80;99.90
23301;DHT22;11819;51.394;12.340;2023-04-15T08:21:20;8.80;99.90
23301;DHT22;11819;51.394;12.340;2023-04-15T08:23:47;8.90;99.90
23301;DHT22;11819;51.394;12.340;2023-04-15T08:26:13;8.90;99.90
23301;DHT22;11819;51.394;12.340;2023-04-15T08:28:44;8.90;99.90
23301;DHT22;11819;51.394;12.340;2023-04-15T08:31:11;8.90;99.90
23301;DHT22;11819;51.394;12.340;2023-04-15T08:33:37;8.90;99.90
23301;DHT22;11819;51.394;12.340;2023-04-15T08:36:02;8.90;99.90
23301;DHT22;11819;51.394;12.340;2023-04-15T08:38:28;8.90;99.90
23301;DHT22;11819;51.394;12.340;2023-04-15T08:40:55;8.90;99.90
23301;DHT22;11819;51.394;12.340;2023-04-15T08:43:23;8.90;99.90
23301;DHT22;11819;51.394;12.340;2023-04-15T08:45:51;9.00;99.90
23301;DHT22;11819;51.394;12.340;2023-04-15T08:48:18;9.10;99.90
23301;DHT22;11819;51.394;12.340;2023-04-15T08:50:44;9.20;99.90
23301;DHT22;11819;51.394;12.340;2023-04-15T08:53:11;9.20;99.90
23301;DHT22;11819;51.394;12.340;2023-04-15T08:55:42;9.20;99.90
23301;DHT22;11819;51.394;12.340;2023-04-15T08:58:10;9.30;99.90
23301;DHT22;11819;51.394;12.340;2023-04-15T09:00:36;9.30;99.90
23301;DHT22;11819;51.394;12.340;2023-04-15T09:03:05;9.40;99.90
23301;DHT22;11819;51.394;12.340;2023-04-15T09:05:32;9.40;99.90
23301;DHT22;11819;51.394;12.340;2023-04-15T09:07:59;9.40;99.90
23301;DHT22;11819;51.394;12.340;2023-04-15T09:10:24;9.50;99.90
23301;DHT22;11819;51.394;12.340;2023-04-15T09:12:50;9.50;99.90
23301;DHT22;11819;51.394;12.340;2023-04-15T09:15:16;9.50;99.90
23301;DHT22;11819;51.394;12.340;2023-04-15T09:17:45;9.50;99.90
23301;DHT22;11819;51.394;12.340;2023-04-15T09:20:18;9.60;99.90
23301;DHT22;11819;51.394;12.340;2023-04-15T09:22:46;9.60;99.90
23301;DHT22;11819;51.394;12.340;2023-04-15T09:25:23;9.70;99.90
23301;DHT22;11819;51.394;12.340;2023-04-15T09:27:57;9.70;99.90
23301;DHT22;11819;51.394;12.340;2023-04-15T09:30:23;9.70;99.90
23301;DHT22;11819;51.394;12.340;2023-04-15T09:35:15;9.70;99.90
23301;DHT22;11819;51.394;12.340;2023-04-15T09:37:41;9.80;99.90
23301;DHT22;11819;51.394;12.340;2023-04-15T09:40:07;9.80;99.90
23301;DHT22;11819;51.394;12.340;2023-04-15T09:42:34;9.90;99.90
23301;DHT22;11819;51.394;12.340;2023-04-15T09:45:10;9.90;99.90
23301;DHT22;11819;51.394;12.340;2023-04-15T09:47:36;9.90;99.90
23301;DHT22;11819;51.394;12.340;2023-04-15T09:50:02;9.90;99.90
23301;DHT22;11819;51.394;12.340;2023-04-15T09:52:28;10.00;99.90
23301;DHT22;11819;51.394;12.340;2023-04-15T09:54:57;10.00;99.90
23301;DHT22;11819;51.394;12.340;2023-04-15T09:57:23;10.10;99.90
23301;DHT22;11819;51.394;12.340;2023-04-15T09:59:49;10.10;99.90
23301;DHT22;11819;51.394;12.340;2023-04-15T10:02:18;10.10;99.90
23301;DHT22;11819;51.394;12.340;2023-04-15T10:04:47;10.10;99.90
23301;DHT22;11819;51.394;12.340;2023-04-15T10:07:14;10.10;99.90
23301;DHT22;11819;51.394;12.340;2023-04-15T10:09:40;10.20;99.90
23301;DHT22;11819;51.394;12.340;2023-04-15T10:12:05;10.20;99.90
23301;DHT22;11819;51.394;12.340;2023-04-15T10:14:33;10.20;99.90
23301;DHT22;11819;51.394;12.340;2023-04-15T10:17:04;10.20;99.90
23301;DHT22;11819;51.394;12.340;2023-04-15T10:19:35;10.20;99.90
23301;DHT22;11819;51.394;12.340;2023-04-15T10:22:01;10.20;99.90
23301;DHT22;11819;51.394;12.340;2023-04-15T10:24:28;10.30;99.90
23301;DHT22;11819;51.394;12.340;2023-04-15T10:26:55;10.30;99.90
23301;DHT22;11819;51.394;12.340;2023-04-15T10:29:24;10.30;99.90
23301;DHT22;11819;51.394;12.340;2023-04-15T10:31:53;10.40;99.90
23301;DHT22;11819;51.394;12.340;2023-04-15T10:34:19;10.40;99.90
23301;DHT22;11819;51.394;12.340;2023-04-15T10:36:46;10.40;99.90
23301;DHT22;11819;51.394;12.340;2023-04-15T10:39:38;10.40;99.90
23301;DHT22;11819;51.394;12.340;2023-04-15T10:42:12;10.40;99.90
23301;DHT22;11819;51.394;12.340;2023-04-15T10:44:42;10.40;99.90
23301;DHT22;11819;51.394;12.340;2023-04-15T10:47:13;10.50;99.90
23301;DHT22;11819;51.394;12.340;2023-04-15T10:49:45;10.50;99.90
23301;DHT22;11819;51.394;12.340;2023-04-15T10:52:11;10.50;99.90
23301;DHT22;11819;51.394;12.340;2023-04-15T10:54:37;10.60;99.90
23301;DHT22;11819;51.394;12.340;2023-04-15T10:59:31;10.60;99.90
23301;DHT22;11819;51.394;12.340;2023-04-15T11:02:02;10.60;99.90
23301;DHT22;11819;51.394;12.340;2023-04-15T11:04:54;10.60;99.90
23301;DHT22;11819;51.394;12.340;2023-04-15T11:12:44;10.70;99.90
23301;DHT22;11819;51.394;12.340;2023-04-15T11:18:11;10.60;99.90
23301;DHT22;11819;51.394;12.340;2023-04-15T11:20:38;10.70;99.90
23301;DHT22;11819;51.394;12.340;2023-04-15T11:23:05;10.70;99.90
23301;DHT22;11819;51.394;12.340;2023-04-15T11:25:32;10.70;99.90
23301;DHT22;11819;51.394;12.340;2023-04-15T11:28:00;10.80;99.90
23301;DHT22;11819;51.394;12.340;2023-04-15T11:30:28;10.80;99.90
23301;DHT22;11819;51.394;12.340;2023-04-15T11:32:57;10.90;99.90
23301;DHT22;11819;51.394;12.340;2023-04-15T11:35:23;10.90;99.90
23301;DHT22;11819;51.394;12.340;2023-04-15T11:37:50;10.90;99.90
23301;DHT22;11819;51.394;12.340;2023-04-15T11:40:19;10.90;99.90
23301;DHT22;11819;51.394;12.340;2023-04-15T11:43:12;10.90;99.90
23301;DHT22;11819;51.394;12.340;2023-04-15T11:45:58;11.00;99.90
23301;DHT22;11819;51.394;12.340;2023-04-15T11:48:29;11.00;99.90
23301;DHT22;11819;51.394;12.340;2023-04-15T11:50:58;11.00;99.90
23301;DHT22;11819;51.394;12.340;2023-04-15T11:53:38;11.00;99.90
23301;DHT22;11819;51.394;12.340;2023-04-15T11:56:06;11.00;99.90
23301;DHT22;11819;51.394;12.340;2023-04-15T11:58:34;11.00;99.90
23301;DHT22;11819;51.394;12.340;2023-04-15T12:01:03;11.00;99.90
23301;DHT22;11819;51.394;12.340;2023-04-15T12:03:30;11.10;99.90
23301;DHT22;11819;51.394;12.340;2023-04-15T12:13:57;11.00;99.90
23301;DHT22;11819;51.394;12.340;2023-04-15T12:16:24;11.00;99.90
23301;DHT22;11819;51.394;12.340;2023-04-15T12:18:54;11.00;99.90
23301;DHT22;11819;51.394;12.340;2023-04-15T12:21:24;11.00;99.90
23301;DHT22;11819;51.394;12.340;2023-04-15T12:23:56;11.00;99.90
23301;DHT22;11819;51.394;12.340;2023-04-15T12:26:33;11.00;99.90
23301;DHT22;11819;51.394;12.340;2023-04-15T12:29:10;11.00;99.90
23301;DHT22;11819;51.394;12.340;2023-04-15T12:31:37;11.10;99.90
23301;DHT22;11819;51.394;12.340;2023-04-15T12:34:10;11.10;99.90
23301;DHT22;11819;51.394;12.340;2023-04-15T12:36:36;11.10;99.90
23301;DHT22;11819;51.394;12.340;2023-04-15T12:39:03;11.10;99.90
23301;DHT22;11819;51.394;12.340;2023-04-15T12:41:31;11.10;99.90
23301;DHT22;11819;51.394;12.340;2023-04-15T12:43:57;11.20;99.90
23301;DHT22;11819;51.394;12.340;2023-04-15T12:46:23;11.20;99.90
23301;DHT22;11819;51.394;12.340;2023-04-15T12:48:49;11.20;99.90
23301;DHT22;11819;51.394;12.340;2023-04-15T12:51:16;11.30;99.90
23301;DHT22;11819;51.394;12.340;2023-04-15T12:53:42;11.30;99.90
23301;DHT22;11819;51.394;12.340;2023-04-15T12:56:07;11.30;99.90
23301;DHT22;11819;51.394;12.340;2023-04-15T12:58:33;11.40;99.90
23301;DHT22;11819;51.394;12.340;2023-04-15T13:00:59;11.40;99.90
23301;DHT22;11819;51.394;12.340;2023-04-15T13:03:25;11.40;99.90
23301;DHT22;11819;51.394;12.340;2023-04-15T13:05:50;11.40;99.90
23301;DHT22;11819;51.394;12.340;2023-04-15T13:08:16;11.40;99.90
23301;DHT22;11819;51.394;12.340;2023-04-15T13:10:42;11.40;99.90
23301;DHT22;11819;51.394;12.340;2023-04-15T13:13:08;11.40;99.90
23301;DHT22;11819;51.394;12.340;2023-04-15T13:15:34;11.50;99.90
23301;DHT22;11819;51.394;12.340;2023-04-15T13:17:59;11.50;99.90
23301;DHT22;11819;51.394;12.340;2023-04-15T13:20:25;11.60;99.90
23301;DHT22;11819;51.394;12.340;2023-04-15T13:22:52;11.60;99.90
23301;DHT22;11819;51.394;12.340;2023-04-15T13:25:18;11.60;99.90
23301;DHT22;11819;51.394;12.340;2023-04-15T13:27:44;11.50;99.90
23301;DHT22;11819;51.394;12.340;2023-04-15T13:30:09;11.50;99.90
23301;DHT22;11819;51.394;12.340;2023-04-15T13:32:35;11.50;99.90
23301;DHT22;11819;51.394;12.340;2023-04-15T13:35:01;11.50;99.90
23301;DHT22;11819;51.394;12.340;2023-04-15T13:37:28;11.40;99.90
23301;DHT22;11819;51.394;12.340;2023-04-15T13:39:55;11.40;99.90
23301;DHT22;11819;51.394;12.340;2023-04-15T13:42:23;11.40;99.90
23301;DHT22;11819;51.394;12.340;2023-04-15T13:44:49;11.40;99.90
23301;DHT22;11819;51.394;12.340;2023-04-15T13:47:18;11.40;99.90
23301;DHT22;11819;51.394;12.340;2023-04-15T13:49:44;11.40;99.90
23301;DHT22;11819;51.394;12.340;2023-04-15T13:52:11;11.40;99.90
23301;DHT22;11819;51.394;12.340;2023-04-15T13:54:36;11.40;99.90
23301;DHT22;11819;51.394;12.340;2023-04-15T13:59:35;11.50;99.90
23301;DHT22;11819;51.394;12.340;2023-04-15T14:02:01;11.50;99.90
23301;DHT22;11819;51.394;12.340;2023-04-15T14:04:26;11.50;99.90
23301;DHT22;11819;51.394;12.340;2023-04-15T14:06:52;11.50;99.90
23301;DHT22;11819;51.394;12.340;2023-04-15T14:09:19;11.50;99.90
23301;DHT22;11819;51.394;12.340;2023-04-15T14:11:46;11.50;99.90
23301;DHT22;11819;51.394;12.340;2023-04-15T14:14:12;11.50;99.90
23301;DHT22;11819;51.394;12.340;2023-04-15T14:16:37;11.50;99.90
23301;DHT22;11819;51.394;12.340;2023-04-15T14:19:03;11.50;99.90
23301;DHT22;11819;51.394;12.340;2023-04-15T14:21:28;11.50;99.90
23301;DHT22;11819;51.394;12.340;2023-04-15T14:23:56;11.50;99.90
23301;DHT22;11819;51.394;12.340;2023-04-15T14:26:22;11.50;99.90
23301;DHT22;11819;51.394;12.340;2023-04-15T14:28:47;11.50;99.90
23301;DHT22;11819;51.394;12.340;2023-04-15T14:31:13;11.50;99.90
23301;DHT22;11819;51.394;12.340;2023-04-15T14:33:39;11.40;99.90
23301;DHT22;11819;51.394;12.340;2023-04-15T14:36:06;11.40;99.90
23301;DHT22;11819;51.394;12.340;2023-04-15T14:38:35;11.50;99.90
23301;DHT22;11819;51.394;12.340;2023-04-15T14:41:03;11.40;99.90
23301;DHT22;11819;51.394;12.340;2023-04-15T14:43:29;11.50;99.90
23301;DHT22;11819;51.394;12.340;2023-04-15T14:45:54;11.50;99.90
23301;DHT22;11819;51.394;12.340;2023-04-15T14:48:20;11.50;99.90
23301;DHT22;11819;51.394;12.340;2023-04-15T14:50:46;11.50;99.90
23301;DHT22;11819;51.394;12.340;2023-04-15T14:53:12;11.50;99.90
23301;DHT22;11819;51.394;12.340;2023-04-15T14:55:37;11.50;99.90
23301;DHT22;11819;51.394;12.340;2023-04-15T14:58:03;11.50;99.90
23301;DHT22;11819;51.394;12.340;2023-04-15T15:00:29;11.50;99.90
23301;DHT22;11819;51.394;12.340;2023-04-15T15:02:54;11.60;99.90
23301;DHT22;11819;51.394;12.340;2023-04-15T15:05:20;11.60;99.90
23301;DHT22;11819;51.394;12.340;2023-04-15T15:07:46;11.60;99.90
23301;DHT22;11819;51.394;12.340;2023-04-15T15:10:12;11.60;99.90
23301;DHT22;11819;51.394;12.340;2023-04-15T15:12:38;11.60;99.90
23301;DHT22;11819;51.394;12.340;2023-04-15T15:15:04;11.60;99.90
23301;DHT22;11819;51.394;12.340;2023-04-15T15:17:30;11.60;99.90
23301;DHT22;11819;51.394;12.340;2023-04-15T15:19:55;11.60;99.90
23301;DHT22;11819;51.394;12.340;2023-04-15T15:22:21;11.60;99.90
23301;DHT22;11819;51.394;12.340;2023-04-15T15:24:46;11.60;99.90
23301;DHT22;11819;51.394;12.340;2023-04-15T15:27:12;11.60;99.90
23301;DHT22;11819;51.394;12.340;2023-04-15T15:29:37;11.60;99.90
23301;DHT22;11819;51.394;12.340;2023-04-15T15:32:03;11.60;99.90
23301;DHT22;11819;51.394;12.340;2023-04-15T15:34:29;11.60;99.90
23301;DHT22;11819;51.394;12.340;2023-04-15T15:36:54;11.60;99.90
23301;DHT22;11819;51.394;12.340;2023-04-15T15:39:24;11.60;99.90
23301;DHT22;11819;51.394;12.340;2023-04-15T15:41:50;11.60;99.90
23301;DHT22;11819;51.394;12.340;2023-04-15T15:44:15;11.60;99.90
23301;DHT22;11819;51.394;12.340;2023-04-15T15:46:41;11.70;99.90